Time;durP1;ratioP1;P1;durP2;ratioP2;P2;SDS_P1;SDS_P2;PMS_P1;PMS_P2;Temp;Humidity;BMP_temperature;BMP_pressure;BME280_temperature;BME280_humidity;BME280_pressure;Samples;Min_cycle;Max_cycle;Signal;HPM_P1;HPM_P2
2022/12/06 00:01:20;;;;;;;12.83;10.70;;;;;;;3.23;100.00;99444.63;6249959;23;20191;-82
2022/12/06 00:03:51;;;;;;;12.17;10.10;;;;;;;3.21;100.00;99444.00;6224137;23;20208;-83
2022/12/06 00:06:20;;;;;;;14.17;10.50;;;;;;;3.23;100.00;99435.84;6224171;23;20212;-81
2022/12/06 00:08:47;;;;;;;12.00;10.17;;;;;;;3.29;100.00;99417.44;6224068;23;20224;-81
2022/12/06 00:11:20;;;;;;;12.47;10.50;;;;;;;3.27;100.00;99413.31;6222607;23;20285;-81
2022/12/06 00:13:51;;;;;;;12.33;10.00;;;;;;;3.21;100.00;99433.41;6222178;23;20208;-80
2022/12/06 00:16:18;;;;;;;11.53;9.90;;;;;;;3.21;100.00;99462.53;6247028;23;20611;-81
2022/12/06 00:18:45;;;;;;;11.87;9.87;;;;;;;3.22;100.00;99439.53;6247889;23;20288;-82
2022/12/06 00:21:15;;;;;;;11.80;9.70;;;;;;;3.19;100.00;99435.38;6248150;23;20599;-83
2022/12/06 00:23:46;;;;;;;11.80;9.43;;;;;;;3.25;100.00;99424.09;6248534;23;20283;-82
2022/12/06 00:26:14;;;;;;;11.53;9.30;;;;;;;3.27;100.00;99411.50;6247774;23;20213;-81
2022/12/06 00:28:41;;;;;;;13.73;11.00;;;;;;;3.35;100.00;99394.72;6221784;23;20284;-82
2022/12/06 00:31:16;;;;;;;12.53;8.97;;;;;;;3.19;100.00;99395.69;6247338;23;20600;-81
2022/12/06 00:33:43;;;;;;;10.40;8.50;;;;;;;3.06;100.00;99398.09;6220284;23;20208;-82
2022/12/06 00:36:13;;;;;;;10.37;8.93;;;;;;;3.05;100.00;99384.03;6220164;23;20280;-80
2022/12/06 00:38:40;;;;;;;9.27;7.37;;;;;;;3.07;100.00;99389.16;6221751;23;20302;-78
2022/12/06 00:41:11;;;;;;;7.93;6.13;;;;;;;2.99;100.00;99410.38;6221874;23;20283;-79
2022/12/06 00:43:38;;;;;;;6.90;5.57;;;;;;;2.93;100.00;99426.97;6248601;23;20201;-79
2022/12/06 00:46:07;;;;;;;6.03;4.10;;;;;;;3.01;100.00;99397.81;6221635;23;20205;-78
2022/12/06 00:48:34;;;;;;;5.37;4.13;;;;;;;2.89;100.00;99396.59;6247892;23;20204;-78
2022/12/06 00:51:00;;;;;;;6.77;4.70;;;;;;;2.90;100.00;99408.78;6247241;23;20224;-78
2022/12/06 00:53:27;;;;;;;5.90;4.33;;;;;;;2.89;100.00;99396.59;6246638;23;20217;-81
2022/12/06 00:55:54;;;;;;;4.83;4.20;;;;;;;2.98;100.00;99400.81;6246902;23;20275;-81
2022/12/06 00:58:21;;;;;;;4.90;4.40;;;;;;;2.93;100.00;99396.06;6245236;23;20216;-81
2022/12/06 01:00:48;;;;;;;3.90;3.50;;;;;;;2.97;100.00;99401.81;6246336;23;20223;-81
2022/12/06 01:03:15;;;;;;;5.33;3.67;;;;;;;2.99;100.00;99394.50;6195658;23;20284;-81
2022/12/06 01:05:46;;;;;;;4.03;3.63;;;;;;;3.04;100.00;99378.91;6221200;23;20673;-82
2022/12/06 01:08:13;;;;;;;3.90;3.50;;;;;;;2.97;100.00;99375.34;6220698;23;20228;-81
2022/12/06 01:10:41;;;;;;;3.93;3.40;;;;;;;2.91;100.00;99376.88;6221846;23;20207;-81
2022/12/06 01:13:07;;;;;;;4.67;3.60;;;;;;;2.91;100.00;99368.94;6221012;23;20288;-81
2022/12/06 01:15:35;;;;;;;4.13;3.47;;;;;;;2.93;100.00;99368.75;6247679;23;20275;-81
2022/12/06 01:18:02;;;;;;;4.10;3.40;;;;;;;2.98;100.00;99371.72;6247519;23;20208;-80
2022/12/06 01:20:29;;;;;;;3.77;3.10;;;;;;;2.97;100.00;99378.00;6248555;23;20198;-82
2022/12/06 01:22:56;;;;;;;3.83;3.43;;;;;;;3.01;100.00;99380.09;6248129;23;20224;-81
2022/12/06 01:25:22;;;;;;;4.00;3.47;;;;;;;3.04;100.00;99386.84;6249981;23;20288;-82
2022/12/06 01:27:52;;;;;;;4.10;3.33;;;;;;;3.07;100.00;99370.66;6249686;23;20725;-81
2022/12/06 01:30:18;;;;;;;3.60;3.30;;;;;;;3.00;100.00;99356.47;6197046;23;20291;-82
2022/12/06 01:32:45;;;;;;;3.93;3.23;;;;;;;2.91;100.00;99353.06;6249517;23;20284;-81
2022/12/06 01:35:12;;;;;;;4.10;3.50;;;;;;;2.92;100.00;99370.59;6249705;22;20275;-82
2022/12/06 01:37:38;;;;;;;4.63;3.70;;;;;;;2.91;100.00;99366.28;6222680;23;20224;-82
2022/12/06 01:40:05;;;;;;;4.93;3.70;;;;;;;2.87;100.00;99353.59;6249082;23;20291;-81
2022/12/06 01:42:32;;;;;;;4.17;3.37;;;;;;;2.84;100.00;99341.53;6249574;23;20228;-82
2022/12/06 01:44:59;;;;;;;3.70;3.37;;;;;;;2.90;100.00;99353.22;6222896;23;20224;-81
2022/12/06 01:47:30;;;;;;;4.33;3.27;;;;;;;2.88;100.00;99353.41;6223520;23;20224;-82
2022/12/06 01:50:04;;;;;;;3.30;3.00;;;;;;;2.88;100.00;99349.94;6246428;23;20212;-80
2022/12/06 01:52:38;;;;;;;3.00;2.80;;;;;;;2.84;100.00;99332.78;6245428;23;20261;-80
2022/12/06 01:55:06;;;;;;;3.20;2.90;;;;;;;2.81;100.00;99347.19;6219214;23;20210;-80
2022/12/06 01:57:33;;;;;;;3.47;3.17;;;;;;;2.85;100.00;99355.56;6183823;23;20550;-81
2022/12/06 02:00:00;;;;;;;2.90;2.67;;;;;;;2.82;100.00;99351.47;6187700;23;20285;-83
2022/12/06 02:02:36;;;;;;;3.20;2.90;;;;;;;2.82;100.00;99348.00;6187993;23;20225;-82
2022/12/06 02:05:03;;;;;;;3.10;2.80;;;;;;;2.85;100.00;99345.81;6189117;23;20202;-82
2022/12/06 02:07:30;;;;;;;3.27;2.70;;;;;;;2.85;100.00;99348.47;6190676;23;20230;-82
2022/12/06 02:09:57;;;;;;;2.57;2.37;;;;;;;2.84;100.00;99359.25;6165034;23;20201;-81
2022/12/06 02:12:24;;;;;;;2.97;2.67;;;;;;;2.81;100.00;99352.47;6190265;23;20206;-82
2022/12/06 02:14:52;;;;;;;2.97;2.60;;;;;;;2.79;100.00;99354.47;6189530;23;20550;-82
2022/12/06 02:17:37;;;;;;;2.70;2.40;;;;;;;2.81;100.00;99352.47;6188427;23;20280;-82
2022/12/06 02:20:19;;;;;;;2.50;2.30;;;;;;;2.84;100.00;99348.66;6187866;23;20214;-81
2022/12/06 02:23:11;;;;;;;2.63;2.43;;;;;;;2.78;100.00;99334.31;6187699;23;20281;-81
2022/12/06 02:25:54;;;;;;;3.80;2.83;;;;;;;2.74;100.00;99342.78;6186403;23;20271;-81
2022/12/06 02:29:01;;;;;;;3.20;2.90;;;;;;;2.78;100.00;99339.59;6184031;23;20214;-80
2022/12/06 02:31:32;;;;;;;3.30;2.83;;;;;;;2.78;100.00;99333.47;6158089;23;20580;-81
2022/12/06 02:34:12;;;;;;;3.40;3.10;;;;;;;2.74;100.00;99327.72;6184778;23;20230;-80
2022/12/06 02:36:43;;;;;;;3.43;3.10;;;;;;;2.79;100.00;99335.13;6184129;23;20204;-81
2022/12/06 02:39:15;;;;;;;3.73;3.40;;;;;;;2.70;100.00;99334.38;6185449;23;20212;-80
2022/12/06 02:41:52;;;;;;;3.30;3.03;;;;;;;2.71;100.00;99329.91;6185057;23;20202;-81
2022/12/06 02:44:28;;;;;;;3.47;3.17;;;;;;;2.72;100.00;99327.06;6184501;23;20198;-82
2022/12/06 02:46:55;;;;;;;3.00;2.70;;;;;;;2.73;100.00;99319.97;6185020;23;20260;-81
2022/12/06 02:49:25;;;;;;;3.80;3.40;;;;;;;2.70;100.00;99328.25;6184425;23;20730;-81
2022/12/06 02:51:53;;;;;;;3.53;3.23;;;;;;;2.75;100.00;99315.34;6184671;23;20604;-80
2022/12/06 02:54:21;;;;;;;4.07;3.50;;;;;;;2.75;100.00;99321.44;6183506;23;20689;-81
2022/12/06 02:56:48;;;;;;;3.70;3.30;;;;;;;2.71;100.00;99325.41;6189809;23;20279;-80
2022/12/06 02:59:14;;;;;;;4.03;3.63;;;;;;;2.71;100.00;99322.78;6215264;23;20721;-80
2022/12/06 03:01:45;;;;;;;5.13;4.33;;;;;;;2.72;100.00;99319.13;6215494;23;20215;-81
2022/12/06 03:04:44;;;;;;;5.07;3.80;;;;;;;2.67;100.00;99321.47;6215007;23;20213;-80
2022/12/06 03:07:16;;;;;;;4.70;4.17;;;;;;;2.61;100.00;99315.06;6213698;23;20231;-81
2022/12/06 03:10:17;;;;;;;6.03;4.30;;;;;;;2.58;100.00;99302.22;6215260;23;20251;-80
2022/12/06 03:13:24;;;;;;;5.27;3.93;;;;;;;2.58;100.00;99310.16;6214331;23;20205;-81
2022/12/06 03:15:59;;;;;;;5.93;4.77;;;;;;;2.54;100.00;99305.38;6213776;23;20207;-81
2022/12/06 03:19:08;;;;;;;5.70;5.00;;;;;;;2.53;100.00;99309.84;6215996;23;20205;-80
2022/12/06 03:21:42;;;;;;;5.83;4.93;;;;;;;2.52;100.00;99302.13;6221175;23;20209;-81
2022/12/06 03:24:12;;;;;;;6.53;5.43;;;;;;;2.51;100.00;99309.22;6215821;23;20262;-80
2022/12/06 03:26:40;;;;;;;5.77;5.07;;;;;;;2.50;100.00;99307.56;6214221;23;20205;-81
2022/12/06 03:29:08;;;;;;;6.93;5.13;;;;;;;2.50;100.00;99301.44;6215586;23;20204;-81
2022/12/06 03:31:37;;;;;;;6.03;4.30;;;;;;;2.54;100.00;99306.22;6214176;23;20205;-81
2022/12/06 03:34:10;;;;;;;5.00;4.50;;;;;;;2.52;100.00;99305.56;6214963;23;20209;-82
2022/12/06 03:36:37;;;;;;;3.80;3.23;;;;;;;2.55;100.00;99302.56;6216091;23;20275;-81
2022/12/06 03:39:06;;;;;;;4.07;3.67;;;;;;;2.55;100.00;99310.50;6218772;23;20561;-82
2022/12/06 03:41:40;;;;;;;3.30;2.93;;;;;;;2.55;100.00;99307.88;6192753;23;20209;-82
2022/12/06 03:44:06;;;;;;;3.83;3.23;;;;;;;2.59;100.00;99313.63;6217098;23;20209;-81
2022/12/06 03:46:36;;;;;;;4.23;3.30;;;;;;;2.71;100.00;99316.69;6218544;23;20221;-81
2022/12/06 03:49:54;;;;;;;4.13;3.57;;;;;;;2.74;100.00;99319.78;6216959;23;20602;-81
2022/12/06 03:52:23;;;;;;;3.53;3.00;;;;;;;2.84;100.00;99319.56;6204033;22;20552;-82
2022/12/06 03:54:50;;;;;;;2.87;2.50;;;;;;;2.88;100.00;99326.97;6216921;23;20208;-81
2022/12/06 03:57:17;;;;;;;3.27;2.47;;;;;;;2.91;100.00;99317.84;6216838;22;20224;-81
2022/12/06 03:59:45;;;;;;;3.53;2.60;;;;;;;2.83;100.00;99312.63;6214587;23;20589;-81
2022/12/06 04:02:11;;;;;;;2.63;2.20;;;;;;;2.91;100.00;99313.38;6215620;22;20280;-80
2022/12/06 04:04:39;;;;;;;5.63;3.37;;;;;;;2.90;100.00;99314.34;6216694;22;20284;-80
2022/12/06 04:07:06;;;;;;;5.07;2.80;;;;;;;2.93;100.00;99311.38;6215920;22;20202;-80
2022/12/06 04:15:04;;;;;;;2.63;1.63;;;;;;;3.05;100.00;99319.69;6215672;22;20280;-80
2022/12/06 04:20:16;;;;;;;1.97;1.50;;;;;;;3.10;100.00;99319.97;6215324;23;20544;-80
2022/12/06 04:25:29;;;;;;;2.50;1.40;;;;;;;3.31;100.00;99312.16;6215988;23;20518;-81
2022/12/06 04:38:57;;;;;;;1.37;1.17;;;;;;;3.55;100.00;99305.78;6221910;23;20208;-81
2022/12/06 04:44:09;;;;;;;1.20;1.03;;;;;;;3.60;100.00;99308.72;6219236;23;20209;-81
2022/12/06 04:46:36;;;;;;;1.10;1.00;;;;;;;3.70;100.00;99316.38;6194836;23;20201;-81
2022/12/06 04:49:02;;;;;;;1.30;1.20;;;;;;;3.64;100.00;99320.59;6221052;23;20248;-81
2022/12/06 04:51:29;;;;;;;1.50;1.40;;;;;;;3.70;100.00;99319.03;6220048;23;20601;-82
2022/12/06 04:53:56;;;;;;;1.73;1.10;;;;;;;3.75;100.00;99321.97;6219007;23;20201;-82
2022/12/06 04:56:22;;;;;;;0.87;0.87;;;;;;;3.79;100.00;99304.69;6217536;23;20600;-81
2022/12/06 04:58:49;;;;;;;1.10;1.00;;;;;;;3.76;100.00;99315.66;6248348;23;20197;-81
2022/12/06 05:01:16;;;;;;;0.70;0.70;;;;;;;3.93;100.00;99304.69;6248469;23;20283;-82
2022/12/06 05:03:43;;;;;;;0.70;0.70;;;;;;;3.86;100.00;99308.25;6251185;23;20207;-82
2022/12/06 05:06:10;;;;;;;0.80;0.70;;;;;;;3.80;100.00;99306.34;6226049;23;20519;-83
2022/12/06 05:08:36;;;;;;;1.13;0.80;;;;;;;3.74;100.00;99312.34;6201418;23;20609;-82
2022/12/06 05:11:03;;;;;;;1.63;0.80;;;;;;;3.75;100.00;99308.72;6252399;23;20287;-82
2022/12/06 05:13:30;;;;;;;0.83;0.83;;;;;;;3.78;100.00;99297.75;6224710;23;20232;-82
2022/12/06 05:16:02;;;;;;;0.80;0.80;;;;;;;3.84;100.00;99304.97;6223615;23;20235;-82
2022/12/06 05:18:29;;;;;;;0.80;0.80;;;;;;;3.81;100.00;99307.97;6249990;23;20243;-82
2022/12/06 05:21:02;;;;;;;0.70;0.70;;;;;;;3.70;100.00;99311.91;6250857;23;20665;-81
2022/12/06 05:23:29;;;;;;;0.93;0.90;;;;;;;3.74;100.00;99313.19;6250989;23;20220;-82
2022/12/06 05:26:00;;;;;;;1.30;0.87;;;;;;;3.75;100.00;99304.25;6251434;23;20192;-81
2022/12/06 05:28:27;;;;;;;0.80;0.80;;;;;;;3.76;100.00;99320.97;6250916;23;20546;-82
2022/12/06 05:30:54;;;;;;;0.83;0.83;;;;;;;3.74;100.00;99310.53;6223736;23;20280;-81
2022/12/06 05:33:21;;;;;;;0.70;0.70;;;;;;;3.94;100.00;99302.84;6249353;23;20275;-83
2022/12/06 05:35:48;;;;;;;1.07;0.97;;;;;;;3.91;100.00;99304.06;6249975;23;20209;-82
2022/12/06 05:38:15;;;;;;;1.13;0.70;;;;;;;4.00;100.00;99315.38;6250910;23;20209;-81
2022/12/06 05:40:42;;;;;;;1.00;0.70;;;;;;;3.94;100.00;99316.09;6251965;23;20220;-83
2022/12/06 05:43:09;;;;;;;0.80;0.80;;;;;;;4.01;100.00;99319.66;6252817;23;20239;-81
2022/12/06 05:45:36;;;;;;;0.87;0.70;;;;;;;4.04;100.00;99314.00;6251621;23;20291;-81
2022/12/06 05:48:04;;;;;;;0.80;0.80;;;;;;;3.99;100.00;99313.72;6251630;23;20212;-81
2022/12/06 05:50:30;;;;;;;0.70;0.70;;;;;;;4.19;100.00;99319.28;6199495;23;20232;-81
2022/12/06 05:52:58;;;;;;;0.63;0.60;;;;;;;4.21;100.00;99328.66;6249651;23;20224;-81
2022/12/06 05:55:26;;;;;;;0.60;0.53;;;;;;;4.21;100.00;99322.53;6249540;23;20292;-82
2022/12/06 05:57:52;;;;;;;0.50;0.50;;;;;;;4.29;100.00;99317.94;6248018;23;20283;-82
2022/12/06 06:00:19;;;;;;;0.73;0.70;;;;;;;4.11;100.00;99308.75;6222819;23;20271;-81
2022/12/06 06:02:47;;;;;;;0.80;0.80;;;;;;;4.26;100.00;99306.91;6223757;23;20276;-82
2022/12/06 06:05:14;;;;;;;0.50;0.50;;;;;;;4.19;100.00;99304.19;6200353;23;20209;-82
2022/12/06 06:07:40;;;;;;;0.80;0.60;;;;;;;4.25;100.00;99300.75;6226370;23;20224;-82
2022/12/06 06:10:07;;;;;;;0.87;0.80;;;;;;;4.47;100.00;99298.16;6223645;23;20212;-81
2022/12/06 06:12:34;;;;;;;0.70;0.70;;;;;;;4.49;100.00;99296.94;6224060;23;20645;-82
2022/12/06 06:15:03;;;;;;;0.70;0.70;;;;;;;4.43;100.00;99306.47;6250900;23;20545;-81
2022/12/06 06:17:30;;;;;;;0.83;0.80;;;;;;;4.61;100.00;99305.25;6223884;23;20267;-82
2022/12/06 06:19:57;;;;;;;0.70;0.70;;;;;;;4.41;100.00;99300.56;6251230;23;20672;-82
2022/12/06 06:22:23;;;;;;;0.70;0.70;;;;;;;4.46;100.00;99309.78;6257202;22;20211;-83
2022/12/06 06:24:50;;;;;;;0.80;0.80;;;;;;;4.40;100.00;99314.81;6254571;23;20288;-82
2022/12/06 06:27:17;;;;;;;0.93;0.93;;;;;;;4.38;100.00;99318.69;6202533;23;20205;-82
2022/12/06 06:29:43;;;;;;;0.73;0.73;;;;;;;4.38;100.00;99313.38;6245332;23;20212;-82
2022/12/06 06:32:12;;;;;;;0.80;0.80;;;;;;;4.46;100.00;99310.59;6212626;23;20224;-82
2022/12/06 06:34:39;;;;;;;0.90;0.90;;;;;;;4.48;100.00;99310.41;6204375;22;20200;-82
2022/12/06 06:37:06;;;;;;;0.80;0.80;;;;;;;4.54;100.00;99317.59;6231717;23;20201;-82
2022/12/06 06:39:32;;;;;;;1.10;1.00;;;;;;;4.51;100.00;99310.03;6207781;23;20225;-82
2022/12/06 06:41:59;;;;;;;1.37;1.00;;;;;;;4.53;100.00;99315.94;6207269;23;20212;-81
2022/12/06 06:44:26;;;;;;;0.90;0.90;;;;;;;4.41;100.00;99320.94;6218175;23;20291;-80
2022/12/06 06:46:52;;;;;;;2.13;1.03;;;;;;;4.58;100.00;99314.38;6245066;23;20276;-80
2022/12/06 06:49:19;;;;;;;0.80;0.80;;;;;;;4.56;100.00;99310.28;6245241;23;20283;-81
2022/12/06 06:51:46;;;;;;;1.10;1.00;;;;;;;4.70;100.00;99317.38;6220450;23;20205;-81
2022/12/06 06:54:14;;;;;;;1.33;1.13;;;;;;;4.63;100.00;99319.94;6218181;23;20236;-81
2022/12/06 06:56:40;;;;;;;1.20;1.10;;;;;;;4.82;100.00;99319.31;6244700;23;20287;-81
2022/12/06 06:59:07;;;;;;;1.10;1.00;;;;;;;4.78;100.00;99330.50;6219078;23;20695;-81
2022/12/06 07:01:34;;;;;;;1.03;0.93;;;;;;;4.80;100.00;99326.66;6245487;23;20279;-81
2022/12/06 07:04:01;;;;;;;1.10;1.00;;;;;;;4.93;100.00;99323.31;6219261;23;20295;-81
2022/12/06 07:06:28;;;;;;;1.10;1.00;;;;;;;4.99;100.00;99333.19;6245499;23;20291;-80
2022/12/06 07:08:54;;;;;;;0.90;0.90;;;;;;;4.92;100.00;99334.09;6219933;23;20235;-80
2022/12/06 07:11:22;;;;;;;1.10;1.00;;;;;;;5.03;100.00;99329.13;6246062;23;20284;-81
2022/12/06 07:13:49;;;;;;;1.00;0.90;;;;;;;5.17;100.00;99340.66;6245810;23;20459;-82
2022/12/06 07:16:18;;;;;;;0.80;0.80;;;;;;;5.27;100.00;99327.88;6245224;23;20606;-80
2022/12/06 07:18:46;;;;;;;2.10;1.73;;;;;;;5.19;100.00;99339.47;6245846;23;20268;-82
2022/12/06 07:21:14;;;;;;;1.20;1.10;;;;;;;5.46;100.00;99335.16;6245902;23;20208;-81
2022/12/06 07:23:41;;;;;;;1.50;1.10;;;;;;;5.50;100.00;99336.44;6245427;23;20211;-81
2022/12/06 07:26:14;;;;;;;1.30;1.20;;;;;;;5.66;100.00;99333.47;6246548;23;20216;-80
2022/12/06 07:28:42;;;;;;;1.20;1.10;;;;;;;5.52;100.00;99326.41;6221279;23;20246;-81
2022/12/06 07:31:14;;;;;;;1.20;1.10;;;;;;;5.45;100.00;99335.38;6247860;23;20271;-80
2022/12/06 07:33:41;;;;;;;1.30;1.20;;;;;;;5.48;100.00;99324.34;6247165;23;20209;-81
2022/12/06 07:36:09;;;;;;;1.10;1.00;;;;;;;5.46;100.00;99329.84;6220053;23;20209;-80
2022/12/06 07:38:38;;;;;;;1.40;1.30;;;;;;;5.48;100.00;99324.34;6222259;23;20701;-80
2022/12/06 07:46:40;;;;;;;1.10;1.00;;;;;;;5.67;100.00;99336.94;6225791;23;20208;-80
2022/12/06 07:49:07;;;;;;;1.07;1.00;;;;;;;5.73;100.00;99334.34;6247822;23;20204;-81
2022/12/06 07:51:34;;;;;;;0.90;0.90;;;;;;;5.84;100.00;99335.59;6247896;23;20205;-81
2022/12/06 07:54:02;;;;;;;1.10;1.00;;;;;;;5.86;100.00;99332.75;6247212;23;20235;-79
2022/12/06 07:56:28;;;;;;;1.30;0.80;;;;;;;6.22;100.00;99343.19;6220691;23;20547;-82
2022/12/06 07:58:55;;;;;;;1.20;0.90;;;;;;;6.40;100.00;99344.28;6247343;23;20280;-80
2022/12/06 08:01:22;;;;;;;0.80;0.80;;;;;;;6.75;100.00;99336.19;6247367;23;20736;-81
2022/12/06 08:03:49;;;;;;;0.80;0.80;;;;;;;6.80;100.00;99344.41;6247696;23;20203;-81
2022/12/06 08:06:16;;;;;;;1.17;1.07;;;;;;;6.97;100.00;99348.31;6247832;23;20677;-81
2022/12/06 08:08:43;;;;;;;0.70;0.70;;;;;;;6.98;100.00;99347.28;6247959;23;20228;-81
2022/12/06 08:11:10;;;;;;;0.90;0.90;;;;;;;7.37;100.00;99347.28;6247259;23;20202;-81
2022/12/06 08:13:37;;;;;;;1.03;0.93;;;;;;;7.47;100.00;99345.03;6247316;23;20286;-80
2022/12/06 08:16:08;;;;;;;0.90;0.90;;;;;;;7.52;100.00;99334.56;6246757;23;20205;-80
2022/12/06 08:18:36;;;;;;;1.33;1.23;;;;;;;7.47;100.00;99342.38;6221049;23;20226;-81
2022/12/06 08:21:03;;;;;;;1.13;1.03;;;;;;;7.41;100.00;99334.41;6247436;23;20218;-81
2022/12/06 08:23:30;;;;;;;1.20;1.10;;;;;;;7.52;100.00;99334.56;6247479;23;20263;-81
2022/12/06 08:26:02;;;;;;;1.03;0.93;;;;;;;7.18;100.00;99334.00;6248165;23;20221;-82
2022/12/06 08:28:31;;;;;;;1.10;1.00;;;;;;;7.06;100.00;99339.91;6247362;23;20296;-82
2022/12/06 08:30:57;;;;;;;1.03;1.00;;;;;;;7.17;100.00;99335.84;6247570;23;20203;-81
2022/12/06 08:33:31;;;;;;;1.60;1.00;;;;;;;7.14;100.00;99346.09;6247259;23;20239;-81
2022/12/06 08:35:58;;;;;;;0.83;0.83;;;;;;;6.90;100.00;99344.81;6246435;22;20206;-80
2022/12/06 08:38:25;;;;;;;1.07;0.93;;;;;;;6.59;100.00;99340.84;6246074;23;20638;-81
2022/12/06 08:40:51;;;;;;;1.20;1.00;;;;;;;6.62;100.00;99347.63;6246568;23;20536;-81
2022/12/06 08:43:18;;;;;;;0.93;0.80;;;;;;;6.62;100.00;99344.97;6247049;23;20272;-81
2022/12/06 08:45:50;;;;;;;1.17;1.07;;;;;;;6.65;100.00;99349.88;6247171;23;20227;-81
2022/12/06 08:48:17;;;;;;;1.17;1.07;;;;;;;6.73;100.00;99355.03;6220343;23;20212;-82
2022/12/06 08:50:44;;;;;;;0.93;0.90;;;;;;;6.65;100.00;99352.56;6220221;23;20211;-81
2022/12/06 08:53:10;;;;;;;1.20;1.10;;;;;;;6.64;100.00;99346.41;6246910;23;20224;-81
2022/12/06 08:55:37;;;;;;;1.20;1.10;;;;;;;6.77;100.00;99345.59;6246120;23;20223;-81
2022/12/06 08:58:04;;;;;;;1.00;0.90;;;;;;;6.90;100.00;99348.31;6245533;23;20208;-80
2022/12/06 09:00:33;;;;;;;1.20;1.07;;;;;;;6.85;100.00;99347.28;6246552;23;20279;-80
2022/12/06 09:03:00;;;;;;;0.80;0.80;;;;;;;6.80;100.00;99347.88;6221640;23;20716;-81
2022/12/06 09:05:27;;;;;;;1.00;1.00;;;;;;;6.79;100.00;99356.88;6247900;23;20209;-81
2022/12/06 09:07:55;;;;;;;2.03;1.20;;;;;;;6.81;100.00;99359.34;6233911;23;20209;-83
2022/12/06 09:10:31;;;;;;;0.90;0.90;;;;;;;6.83;100.00;99367.94;6230075;23;20208;-82
2022/12/06 09:12:59;;;;;;;0.90;0.90;;;;;;;6.83;100.00;99365.28;6198282;23;20655;-81
2022/12/06 09:15:26;;;;;;;1.00;0.90;;;;;;;6.83;100.00;99371.44;6251779;22;20211;-81
2022/12/06 09:17:53;;;;;;;0.90;0.90;;;;;;;6.83;100.00;99355.47;6249114;23;20263;-81
2022/12/06 09:20:19;;;;;;;0.70;0.70;;;;;;;6.79;100.00;99358.72;6248905;23;20523;-81
2022/12/06 09:22:46;;;;;;;0.70;0.70;;;;;;;6.88;100.00;99355.66;6199613;23;20197;-81
2022/12/06 09:25:13;;;;;;;1.30;0.83;;;;;;;6.63;100.00;99349.25;6251989;23;20594;-82
2022/12/06 09:27:39;;;;;;;0.80;0.73;;;;;;;6.91;100.00;99354.44;6247133;23;20212;-82
2022/12/06 09:30:07;;;;;;;1.13;0.87;;;;;;;7.03;100.00;99356.31;6247897;23;20728;-81
2022/12/06 09:32:33;;;;;;;0.80;0.80;;;;;;;7.04;100.00;99351.81;6253218;23;20201;-81
2022/12/06 09:35:00;;;;;;;1.77;1.00;;;;;;;7.18;100.00;99360.63;6253104;22;20211;-80
2022/12/06 09:46:21;;;;;;;0.80;0.80;;;;;;;6.95;100.00;99347.69;6255960;22;20236;-81
2022/12/06 10:01:26;;;;;;;2.03;1.10;;;;;;;7.28;100.00;99335.19;6251314;22;20218;-82
2022/12/06 10:04:22;;;;;;;1.13;1.03;;;;;;;7.35;100.00;99341.38;6197517;23;20216;-82
2022/12/06 10:06:48;;;;;;;1.20;1.10;;;;;;;7.42;100.00;99339.50;6222370;23;20585;-82
2022/12/06 10:09:30;;;;;;;2.23;1.47;;;;;;;7.44;100.00;99333.97;6249949;23;20256;-82
2022/12/06 10:12:11;;;;;;;1.30;1.20;;;;;;;7.45;100.00;99332.94;6240169;23;20235;-84
2022/12/06 10:15:21;;;;;;;1.07;1.00;;;;;;;7.37;100.00;99328.63;6233919;22;20208;-83
2022/12/06 10:18:37;;;;;;;1.47;1.30;;;;;;;7.23;100.00;99324.34;6208129;23;20205;-83
2022/12/06 10:21:18;;;;;;;1.47;1.37;;;;;;;7.13;100.00;99320.47;6255099;23;20254;-82
2022/12/06 10:24:11;;;;;;;1.30;1.20;;;;;;;7.07;100.00;99330.09;6227024;23;20217;-82
2022/12/06 10:26:51;;;;;;;1.40;1.30;;;;;;;7.06;100.00;99318.59;6203268;23;20254;-82
2022/12/06 10:29:45;;;;;;;3.07;1.53;;;;;;;6.99;100.00;99316.97;6230236;23;20197;-82
2022/12/06 10:32:18;;;;;;;2.17;1.80;;;;;;;6.95;100.00;99324.53;6250684;23;20665;-82
2022/12/06 10:34:55;;;;;;;1.97;1.80;;;;;;;6.96;100.00;99326.19;6229131;23;20210;-82
2022/12/06 10:37:36;;;;;;;2.40;2.20;;;;;;;6.93;100.00;99315.94;6204706;23;20212;-82
2022/12/06 10:40:48;;;;;;;2.30;2.10;;;;;;;7.01;100.00;99315.72;6228687;23;20661;-82
2022/12/06 10:43:22;;;;;;;2.10;1.97;;;;;;;7.00;100.00;99308.75;6203555;23;20200;-82
2022/12/06 10:49:29;;;;;;;3.00;2.77;;;;;;;7.36;100.00;99305.69;6178583;23;20217;-82
2022/12/06 10:52:01;;;;;;;3.20;2.90;;;;;;;7.50;100.00;99299.31;6199427;23;20205;-82
2022/12/06 10:54:31;;;;;;;2.83;2.60;;;;;;;7.40;100.00;99304.25;6224616;23;20205;-83
2022/12/06 10:57:03;;;;;;;3.80;3.23;;;;;;;7.47;100.00;99299.72;6224353;23;20228;-82
2022/12/06 10:59:35;;;;;;;2.83;2.60;;;;;;;7.48;100.00;99297.88;6204434;23;20205;-82
2022/12/06 11:02:37;;;;;;;3.73;3.07;;;;;;;7.50;100.00;99296.66;6190383;23;20286;-82
2022/12/06 11:05:26;;;;;;;3.60;3.30;;;;;;;7.41;100.00;99281.91;6209283;23;20204;-84
2022/12/06 11:08:00;;;;;;;3.33;3.03;;;;;;;7.50;100.00;99288.66;6221448;23;20244;-83
2022/12/06 11:10:32;;;;;;;3.23;2.90;;;;;;;7.48;100.00;99282.69;6260660;23;20284;-82
2022/12/06 11:13:18;;;;;;;3.00;2.70;;;;;;;7.48;100.00;99285.38;6247849;23;20266;-82
2022/12/06 11:16:19;;;;;;;3.67;3.00;;;;;;;7.42;100.00;99270.19;6242102;22;20232;-80
2022/12/06 11:18:48;;;;;;;3.30;3.00;;;;;;;7.26;100.00;99272.50;6205208;23;20265;-81
2022/12/06 11:21:26;;;;;;;3.30;3.00;;;;;;;7.44;100.00;99286.81;6209110;23;20205;-80
2022/12/06 11:23:59;;;;;;;3.63;3.33;;;;;;;7.47;100.00;99273.06;6258821;23;20239;-80
2022/12/06 11:26:52;;;;;;;3.60;3.13;;;;;;;7.56;100.00;99292.31;6234742;23;20208;-82
2022/12/06 11:29:19;;;;;;;3.50;3.20;;;;;;;7.54;100.00;99281.06;6236079;23;20219;-81
2022/12/06 11:31:50;;;;;;;3.67;2.77;;;;;;;7.79;100.00;99279.34;6211647;23;20225;-80
2022/12/06 11:34:29;;;;;;;3.17;2.87;;;;;;;7.85;100.00;99261.69;6235220;23;20215;-80
2022/12/06 11:36:58;;;;;;;3.40;3.00;;;;;;;7.81;100.00;99273.78;6206238;23;20618;-81
2022/12/06 11:39:29;;;;;;;2.70;2.50;;;;;;;8.01;100.00;99268.41;6231484;23;20205;-81
2022/12/06 11:41:59;;;;;;;3.10;2.60;;;;;;;7.81;100.00;99255.94;6240219;22;20212;-80
2022/12/06 11:44:47;;;;;;;2.63;2.43;;;;;;;8.07;100.00;99263.00;6207988;22;20205;-81
2022/12/06 11:47:20;;;;;;;3.07;2.80;;;;;;;8.01;100.00;99250.53;6231880;23;20217;-81
2022/12/06 11:49:51;;;;;;;2.53;2.33;;;;;;;7.93;100.00;99250.78;6210937;23;20212;-81
2022/12/06 11:52:33;;;;;;;2.50;2.30;;;;;;;8.03;100.00;99261.81;6259127;22;20234;-81
2022/12/06 11:55:16;;;;;;;2.83;2.63;;;;;;;8.13;100.00;99261.34;6234565;22;20228;-81
2022/12/06 11:58:01;;;;;;;2.77;2.57;;;;;;;7.92;100.00;99249.16;6208333;23;20209;-80
2022/12/06 12:00:29;;;;;;;2.60;2.40;;;;;;;7.98;100.00;99251.78;6218226;22;20244;-80
2022/12/06 12:02:57;;;;;;;3.40;2.67;;;;;;;7.88;100.00;99255.94;6186120;23;20207;-78
2022/12/06 12:05:29;;;;;;;2.57;2.37;;;;;;;8.00;100.00;99251.56;6187036;23;20210;-80
2022/12/06 12:08:04;;;;;;;4.37;2.77;;;;;;;7.84;100.00;99241.38;6187368;23;20650;-80
2022/12/06 12:10:35;;;;;;;3.27;2.80;;;;;;;7.82;100.00;99244.25;6209724;23;20240;-80
2022/12/06 12:16:16;;;;;;;3.20;2.90;;;;;;;7.98;100.00;99257.09;6205964;23;20210;-79
2022/12/06 12:18:55;;;;;;;3.00;2.70;;;;;;;7.98;100.00;99259.78;6186424;23;20209;-80
2022/12/06 12:21:41;;;;;;;3.30;3.00;;;;;;;8.12;100.00;99259.75;6185762;23;20213;-80
2022/12/06 12:24:44;;;;;;;3.30;2.87;;;;;;;8.25;100.00;99252.47;6185508;23;20587;-79
2022/12/06 12:27:44;;;;;;;3.03;2.70;;;;;;;8.47;100.00;99236.16;6186265;23;20285;-79
2022/12/06 12:30:39;;;;;;;2.80;2.60;;;;;;;8.53;100.00;99249.47;6186309;23;20210;-79
2022/12/06 12:33:08;;;;;;;2.80;2.60;;;;;;;8.65;100.00;99246.91;6142366;23;20583;-80
2022/12/06 12:35:53;;;;;;;2.60;2.40;;;;;;;8.70;99.43;99237.22;6186579;23;20214;-79
2022/12/06 12:38:43;;;;;;;2.53;2.33;;;;;;;8.80;98.61;99242.91;6184817;23;21596;-79
2022/12/06 12:41:22;;;;;;;4.23;2.53;;;;;;;8.77;96.92;99237.97;6185042;23;20255;-79
2022/12/06 12:44:05;;;;;;;2.60;2.40;;;;;;;8.56;96.42;99233.00;6186409;23;20671;-80
2022/12/06 12:46:59;;;;;;;2.67;2.47;;;;;;;8.43;97.32;99232.28;6190868;23;20207;-81
2022/12/06 12:49:32;;;;;;;4.37;2.60;;;;;;;8.31;95.76;99242.81;6216678;23;20256;-80
2022/12/06 12:52:01;;;;;;;2.53;2.33;;;;;;;8.27;95.17;99225.56;6189928;23;20206;-81
2022/12/06 12:54:34;;;;;;;2.63;2.43;;;;;;;8.19;95.85;99223.97;6213478;23;20276;-80